Time;durP1;ratioP1;P1;durP2;ratioP2;P2;SDS_P1;SDS_P2;PMS_P1;PMS_P2;Temp;Humidity;BMP_temperature;BMP_pressure;BME280_temperature;BME280_humidity;BME280_pressure;Samples;Min_cycle;Max_cycle;Signal;HPM_P1;HPM_P2
2023/05/13 00:00:35;;;;;;;0.07;0.07;;;11.30;99.90;;;;;;5075085;28;20173;-82
2023/05/13 00:03:01;;;;;;;0.10;0.10;;;11.40;99.90;;;;;;5071688;28;20228;-82
2023/05/13 00:05:26;;;;;;;0.10;0.10;;;11.50;99.90;;;;;;5072754;28;20182;-83
2023/05/13 00:07:52;;;;;;;0.10;0.10;;;11.70;99.90;;;;;;5074790;28;20729;-82
2023/05/13 00:10:19;;;;;;;0.10;0.10;;;11.90;99.90;;;;;;5075230;28;20243;-83
2023/05/13 00:12:44;;;;;;;0.10;0.10;;;12.10;99.90;;;;;;5075903;28;20894;-83
2023/05/13 00:15:10;;;;;;;0.10;0.10;;;12.20;99.90;;;;;;5075472;28;20232;-82
2023/05/13 00:17:36;;;;;;;0.10;0.10;;;12.30;99.90;;;;;;5073594;28;20275;-82
2023/05/13 00:20:01;;;;;;;0.10;0.10;;;12.40;99.90;;;;;;5075622;28;20243;-82
2023/05/13 00:22:27;;;;;;;0.10;0.10;;;12.60;99.90;;;;;;5070857;28;20249;-82
2023/05/13 00:24:52;;;;;;;0.10;0.10;;;12.70;99.90;;;;;;5075001;28;20229;-83
2023/05/13 00:27:18;;;;;;;0.10;0.10;;;12.70;99.90;;;;;;5075558;28;20211;-82
2023/05/13 00:29:43;;;;;;;0.10;0.10;;;12.70;99.90;;;;;;5072279;28;20220;-83
2023/05/13 00:32:09;;;;;;;0.10;0.10;;;12.60;99.90;;;;;;5073544;28;20207;-83
2023/05/13 00:34:35;;;;;;;0.10;0.10;;;12.60;99.90;;;;;;5074534;28;20228;-83
2023/05/13 00:37:00;;;;;;;0.10;0.10;;;12.70;99.90;;;;;;5090680;28;20204;-83
2023/05/13 00:39:26;;;;;;;0.10;0.10;;;12.70;99.90;;;;;;5073430;28;21042;-82
2023/05/13 00:41:51;;;;;;;0.10;0.10;;;12.80;99.90;;;;;;5071534;28;20192;-83
2023/05/13 00:44:17;;;;;;;0.10;0.10;;;12.80;99.90;;;;;;5072116;28;20180;-82
2023/05/13 00:46:43;;;;;;;0.10;0.10;;;12.80;99.90;;;;;;5072830;28;20264;-82
2023/05/13 00:49:08;;;;;;;0.10;0.10;;;12.80;99.90;;;;;;5072599;28;20173;-82
2023/05/13 00:51:35;;;;;;;0.10;0.10;;;12.80;99.90;;;;;;5087858;28;20757;-83
2023/05/13 00:54:01;;;;;;;0.10;0.10;;;12.90;99.90;;;;;;5073679;28;20187;-83
2023/05/13 00:56:27;;;;;;;0.10;0.10;;;12.90;99.90;;;;;;5072984;28;20193;-83
2023/05/13 00:58:52;;;;;;;0.10;0.10;;;13.00;99.90;;;;;;5072131;28;20278;-83
2023/05/13 01:01:43;;;;;;;0.10;0.10;;;13.10;99.90;;;;;;5071736;28;20193;-81
2023/05/13 01:04:19;;;;;;;0.10;0.10;;;13.20;99.90;;;;;;5075664;28;20558;-81
2023/05/13 01:06:47;;;;;;;0.10;0.10;;;13.20;99.90;;;;;;5072172;28;20195;-83
2023/05/13 01:09:37;;;;;;;0.10;0.10;;;13.30;99.90;;;;;;5074875;28;20188;-83
2023/05/13 01:12:07;;;;;;;0.10;0.10;;;13.30;99.90;;;;;;5072914;28;20234;-82
2023/05/13 01:14:39;;;;;;;0.10;0.10;;;13.30;99.90;;;;;;5074005;28;20291;-82
2023/05/13 01:17:17;;;;;;;0.10;0.10;;;13.10;99.90;;;;;;5073804;28;20183;-83
2023/05/13 01:19:50;;;;;;;0.10;0.10;;;13.00;99.90;;;;;;5071196;28;20178;-82
2023/05/13 01:22:16;;;;;;;0.10;0.10;;;13.00;99.90;;;;;;5074323;28;20388;-82
2023/05/13 01:24:42;;;;;;;0.10;0.10;;;12.90;99.90;;;;;;5074047;28;20260;-82
2023/05/13 01:27:07;;;;;;;0.10;0.10;;;12.80;99.90;;;;;;5071353;28;20269;-83
2023/05/13 01:29:34;;;;;;;0.10;0.10;;;12.70;99.90;;;;;;5072010;28;20213;-82
2023/05/13 01:32:01;;;;;;;0.10;0.10;;;12.70;99.90;;;;;;5073658;28;20201;-82
2023/05/13 01:34:27;;;;;;;0.10;0.10;;;12.70;99.90;;;;;;5072401;28;20209;-82
2023/05/13 01:36:53;;;;;;;0.10;0.10;;;12.70;99.90;;;;;;5074224;28;20213;-83
2023/05/13 01:39:19;;;;;;;0.10;0.10;;;12.70;99.90;;;;;;5074231;28;20188;-82
2023/05/13 01:41:44;;;;;;;0.10;0.10;;;12.70;99.90;;;;;;5072391;28;20211;-83
2023/05/13 01:44:10;;;;;;;0.10;0.10;;;12.70;99.90;;;;;;5071331;28;20184;-82
2023/05/13 01:46:39;;;;;;;0.10;0.10;;;12.80;99.90;;;;;;5071850;28;20185;-83
2023/05/13 01:49:06;;;;;;;0.10;0.10;;;12.90;99.90;;;;;;5073273;28;20231;-83
2023/05/13 01:51:32;;;;;;;0.00;0.00;;;12.90;99.90;;;;;;5071134;28;20211;-82
2023/05/13 01:53:57;;;;;;;0.00;0.00;;;13.00;99.90;;;;;;5074464;28;20179;-82
2023/05/13 01:56:23;;;;;;;0.10;0.10;;;13.00;99.90;;;;;;5070082;28;20319;-83
2023/05/13 01:58:48;;;;;;;0.10;0.10;;;13.00;99.90;;;;;;5074039;28;20177;-82
2023/05/13 02:01:14;;;;;;;0.10;0.10;;;13.00;99.90;;;;;;5072426;28;20659;-82
2023/05/13 02:03:40;;;;;;;0.10;0.10;;;13.00;99.90;;;;;;5073643;28;20240;-82
2023/05/13 02:06:05;;;;;;;0.10;0.10;;;13.00;99.90;;;;;;5073562;28;20178;-83
2023/05/13 02:08:31;;;;;;;0.10;0.10;;;13.00;99.90;;;;;;5071735;28;20271;-83
2023/05/13 02:10:58;;;;;;;0.10;0.10;;;13.00;99.90;;;;;;5070522;28;20181;-82
2023/05/13 02:13:25;;;;;;;0.10;0.10;;;13.00;99.90;;;;;;5071135;28;20219;-83
2023/05/13 02:15:50;;;;;;;0.10;0.10;;;13.10;99.90;;;;;;5074718;28;20208;-82
2023/05/13 02:18:16;;;;;;;0.10;0.10;;;13.10;99.90;;;;;;5071552;28;20177;-82
2023/05/13 02:20:41;;;;;;;0.10;0.10;;;13.10;99.90;;;;;;5073957;28;20253;-83
2023/05/13 02:23:07;;;;;;;0.10;0.10;;;13.20;99.90;;;;;;5071746;28;20676;-81
2023/05/13 02:25:33;;;;;;;0.00;0.00;;;13.10;99.90;;;;;;5070990;28;20902;-83
2023/05/13 02:27:59;;;;;;;0.10;0.10;;;13.10;99.90;;;;;;5073101;28;20178;-83
2023/05/13 02:30:25;;;;;;;0.10;0.10;;;13.10;99.90;;;;;;5074668;28;20234;-82
2023/05/13 02:32:52;;;;;;;0.10;0.10;;;13.10;99.90;;;;;;5074891;28;20235;-82
2023/05/13 02:35:17;;;;;;;0.10;0.10;;;13.20;99.90;;;;;;5073580;28;20316;-82
2023/05/13 02:37:43;;;;;;;0.10;0.10;;;13.10;99.90;;;;;;5071512;28;20724;-83
2023/05/13 02:40:09;;;;;;;0.10;0.10;;;13.20;99.90;;;;;;5069460;28;20192;-83
2023/05/13 02:42:35;;;;;;;0.07;0.07;;;13.20;99.90;;;;;;5071893;28;20201;-83
2023/05/13 02:45:00;;;;;;;0.10;0.10;;;13.20;99.90;;;;;;5072107;28;20215;-83
2023/05/13 02:47:26;;;;;;;0.10;0.10;;;13.20;99.90;;;;;;5075273;28;20673;-83
2023/05/13 02:49:53;;;;;;;0.10;0.10;;;13.20;99.90;;;;;;5074633;28;20711;-83
2023/05/13 02:52:18;;;;;;;0.10;0.10;;;13.20;99.90;;;;;;5070534;28;20232;-82
2023/05/13 02:54:44;;;;;;;0.10;0.10;;;13.20;99.90;;;;;;5090466;28;20252;-82
2023/05/13 02:57:09;;;;;;;0.10;0.10;;;13.20;99.90;;;;;;5070344;28;20575;-82
2023/05/13 02:59:35;;;;;;;0.10;0.10;;;13.10;99.90;;;;;;5072601;28;20194;-83
2023/05/13 03:02:00;;;;;;;0.10;0.10;;;13.00;99.90;;;;;;5071763;28;20198;-82
2023/05/13 03:04:26;;;;;;;0.10;0.10;;;13.00;99.90;;;;;;5073921;28;20230;-83
2023/05/13 03:06:51;;;;;;;0.10;0.10;;;13.00;99.90;;;;;;5073629;28;20188;-83
2023/05/13 03:09:17;;;;;;;0.10;0.10;;;13.00;99.90;;;;;;5072877;28;20183;-82
2023/05/13 03:11:42;;;;;;;0.10;0.10;;;13.00;99.90;;;;;;5075519;28;20218;-82
2023/05/13 03:14:08;;;;;;;0.10;0.10;;;13.00;99.90;;;;;;5076050;28;20186;-83
2023/05/13 03:16:34;;;;;;;0.10;0.10;;;13.00;99.90;;;;;;5077340;28;20840;-82
2023/05/13 03:18:59;;;;;;;0.10;0.10;;;13.10;99.90;;;;;;5077639;28;20180;-82
2023/05/13 03:21:25;;;;;;;0.10;0.10;;;13.20;99.90;;;;;;5077250;28;20209;-81
2023/05/13 03:23:50;;;;;;;0.10;0.10;;;13.20;99.90;;;;;;5076291;28;20553;-82
2023/05/13 03:26:16;;;;;;;0.07;0.07;;;13.10;99.90;;;;;;5072270;28;20179;-83
2023/05/13 03:28:41;;;;;;;0.10;0.10;;;13.10;99.90;;;;;;5076985;28;20219;-82
2023/05/13 03:31:07;;;;;;;0.10;0.10;;;13.10;99.90;;;;;;5073320;28;20187;-82
2023/05/13 03:33:32;;;;;;;0.10;0.10;;;13.10;99.90;;;;;;5074805;28;20188;-82
2023/05/13 03:35:58;;;;;;;0.10;0.10;;;13.20;99.90;;;;;;5076036;28;20199;-82
2023/05/13 03:38:23;;;;;;;0.10;0.10;;;13.20;99.90;;;;;;5077174;28;20267;-82
2023/05/13 03:40:49;;;;;;;0.10;0.10;;;13.20;99.90;;;;;;5073862;28;20333;-82
2023/05/13 03:43:15;;;;;;;0.10;0.10;;;13.20;99.90;;;;;;5075353;28;20278;-82
2023/05/13 03:45:46;;;;;;;0.10;0.10;;;13.20;99.90;;;;;;5073782;28;20213;-82
2023/05/13 03:48:12;;;;;;;0.10;0.10;;;13.20;99.90;;;;;;5077545;28;20179;-82
2023/05/13 03:50:37;;;;;;;0.10;0.10;;;13.30;99.90;;;;;;5073261;28;20224;-81
2023/05/13 03:53:03;;;;;;;0.10;0.10;;;13.20;99.90;;;;;;5075260;28;20202;-82
2023/05/13 03:55:29;;;;;;;0.10;0.10;;;13.30;99.90;;;;;;5074469;28;20216;-82
2023/05/13 03:57:54;;;;;;;0.10;0.10;;;13.30;99.90;;;;;;5075252;28;20195;-82
2023/05/13 04:00:20;;;;;;;0.10;0.10;;;13.40;99.90;;;;;;5073783;28;20196;-82
2023/05/13 04:02:45;;;;;;;0.10;0.10;;;13.40;99.90;;;;;;5073264;28;20226;-82
2023/05/13 04:05:12;;;;;;;0.10;0.10;;;13.50;99.90;;;;;;5071816;28;20187;-82
2023/05/13 04:07:38;;;;;;;0.10;0.10;;;13.50;99.90;;;;;;5072938;28;21276;-82
2023/05/13 04:10:04;;;;;;;0.10;0.10;;;13.50;99.90;;;;;;5072044;28;20190;-82
2023/05/13 04:12:32;;;;;;;0.10;0.10;;;13.40;99.90;;;;;;5075331;28;20231;-82
2023/05/13 04:14:58;;;;;;;0.10;0.10;;;13.40;99.90;;;;;;5072449;28;20203;-82
2023/05/13 04:17:23;;;;;;;0.10;0.10;;;13.30;99.90;;;;;;5075356;28;20181;-82
2023/05/13 04:19:52;;;;;;;0.10;0.10;;;13.30;99.90;;;;;;5072398;28;20187;-82
2023/05/13 04:22:17;;;;;;;0.10;0.10;;;13.40;99.90;;;;;;5074388;28;20234;-82
2023/05/13 04:24:43;;;;;;;0.10;0.10;;;13.40;99.90;;;;;;5072910;28;20535;-82
2023/05/13 04:27:08;;;;;;;0.10;0.10;;;13.40;99.90;;;;;;5073456;28;20186;-81
2023/05/13 04:29:34;;;;;;;0.10;0.10;;;13.40;99.90;;;;;;5072107;28;20219;-82
2023/05/13 04:31:59;;;;;;;0.10;0.10;;;13.40;99.90;;;;;;5071987;28;20478;-82
2023/05/13 04:34:25;;;;;;;0.10;0.10;;;13.30;99.90;;;;;;5075287;28;20186;-82
2023/05/13 04:36:50;;;;;;;0.10;0.10;;;13.30;99.90;;;;;;5075062;28;20181;-82
2023/05/13 04:39:16;;;;;;;0.10;0.10;;;13.20;99.90;;;;;;5074397;28;20184;-82
2023/05/13 04:41:41;;;;;;;0.10;0.10;;;13.20;99.90;;;;;;5071028;28;20989;-82
2023/05/13 04:44:07;;;;;;;0.10;0.10;;;13.30;99.90;;;;;;5073741;28;20179;-82
2023/05/13 04:46:32;;;;;;;0.10;0.10;;;13.30;99.90;;;;;;5072328;28;20251;-83
2023/05/13 04:48:58;;;;;;;0.10;0.10;;;13.40;99.90;;;;;;5073069;28;20188;-82
2023/05/13 04:51:23;;;;;;;0.10;0.10;;;13.40;99.90;;;;;;5073092;28;20282;-81
2023/05/13 04:53:49;;;;;;;0.10;0.10;;;13.50;99.90;;;;;;5073786;28;20191;-82
2023/05/13 04:56:15;;;;;;;0.10;0.10;;;13.60;99.90;;;;;;5073755;28;20239;-82
2023/05/13 04:58:41;;;;;;;0.10;0.10;;;13.80;99.90;;;;;;5073104;28;20185;-82
2023/05/13 05:01:07;;;;;;;0.10;0.10;;;13.90;99.90;;;;;;5075700;28;20186;-82
2023/05/13 05:03:33;;;;;;;0.10;0.10;;;14.00;99.90;;;;;;5074267;28;20211;-82
2023/05/13 05:05:58;;;;;;;0.10;0.10;;;14.20;99.90;;;;;;5074350;28;20525;-82
2023/05/13 05:08:24;;;;;;;0.10;0.10;;;14.30;99.90;;;;;;5074012;28;20193;-82
2023/05/13 05:10:49;;;;;;;0.10;0.10;;;14.40;99.90;;;;;;5073326;28;20267;-82
2023/05/13 05:13:15;;;;;;;0.10;0.10;;;14.40;99.90;;;;;;5072469;28;20225;-82
2023/05/13 05:15:40;;;;;;;0.10;0.10;;;14.50;99.90;;;;;;5074125;28;20254;-82
2023/05/13 05:18:06;;;;;;;0.10;0.10;;;14.60;99.90;;;;;;5074869;28;20218;-82
2023/05/13 05:20:32;;;;;;;0.10;0.10;;;14.60;99.90;;;;;;5072577;28;20187;-82
2023/05/13 05:22:58;;;;;;;0.10;0.10;;;14.70;99.90;;;;;;5071463;28;20313;-82
2023/05/13 05:25:24;;;;;;;0.10;0.10;;;14.80;99.90;;;;;;5072416;28;20192;-82
2023/05/13 05:27:49;;;;;;;0.10;0.10;;;14.80;99.90;;;;;;5067594;28;20195;-83
2023/05/13 05:30:15;;;;;;;0.10;0.10;;;14.80;99.90;;;;;;5071551;28;20555;-83
2023/05/13 05:32:41;;;;;;;0.10;0.10;;;14.60;99.90;;;;;;5069252;28;20219;-84
2023/05/13 05:35:07;;;;;;;0.10;0.10;;;14.60;99.90;;;;;;5071083;28;20332;-83
2023/05/13 05:37:33;;;;;;;0.10;0.10;;;14.70;99.90;;;;;;5071774;28;20203;-84
2023/05/13 05:39:58;;;;;;;0.10;0.10;;;14.60;99.90;;;;;;5073316;28;21023;-81
2023/05/13 05:42:24;;;;;;;0.10;0.10;;;14.70;99.90;;;;;;5072774;28;20235;-82
2023/05/13 05:44:49;;;;;;;0.10;0.10;;;14.90;99.90;;;;;;5070870;28;20898;-82
2023/05/13 05:47:15;;;;;;;0.10;0.10;;;15.00;99.90;;;;;;5075640;28;20187;-82
2023/05/13 05:49:40;;;;;;;0.10;0.10;;;15.20;99.90;;;;;;5074260;28;20657;-82
2023/05/13 05:52:06;;;;;;;0.10;0.10;;;15.40;99.90;;;;;;5074095;28;21068;-82
2023/05/13 05:54:31;;;;;;;0.10;0.10;;;15.50;99.90;;;;;;5075337;28;20184;-82
2023/05/13 05:56:57;;;;;;;0.10;0.10;;;15.70;99.90;;;;;;5077793;28;20211;-82
2023/05/13 05:59:23;;;;;;;0.10;0.10;;;15.80;99.90;;;;;;5075166;28;20608;-82
2023/05/13 06:01:48;;;;;;;0.10;0.10;;;15.80;99.90;;;;;;5073374;28;20197;-82
2023/05/13 06:04:14;;;;;;;0.10;0.10;;;15.80;99.90;;;;;;5077971;28;20515;-82
2023/05/13 06:06:39;;;;;;;0.10;0.10;;;15.90;99.90;;;;;;5076726;28;20202;-82
2023/05/13 06:09:05;;;;;;;0.10;0.10;;;15.90;99.90;;;;;;5071899;28;20200;-82
2023/05/13 06:11:31;;;;;;;0.10;0.10;;;16.00;99.90;;;;;;5077154;28;20280;-82
2023/05/13 06:13:56;;;;;;;0.10;0.10;;;16.10;99.90;;;;;;5074450;28;20177;-82
2023/05/13 06:16:22;;;;;;;0.10;0.10;;;16.30;99.90;;;;;;5073177;28;20223;-83
2023/05/13 06:18:48;;;;;;;0.10;0.10;;;16.40;99.90;;;;;;5076537;28;20743;-82
2023/05/13 06:21:13;;;;;;;0.10;0.10;;;16.20;99.90;;;;;;5075384;28;20177;-82
2023/05/13 06:23:39;;;;;;;0.10;0.10;;;16.30;99.90;;;;;;5076033;28;20196;-82
2023/05/13 06:26:05;;;;;;;0.10;0.10;;;16.60;99.90;;;;;;5076099;28;20192;-82
2023/05/13 06:28:30;;;;;;;0.10;0.10;;;16.60;99.90;;;;;;5073736;28;20331;-82
2023/05/13 06:30:56;;;;;;;0.10;0.10;;;16.30;99.90;;;;;;5070690;28;20181;-82
2023/05/13 06:33:22;;;;;;;0.10;0.10;;;16.20;99.90;;;;;;5068282;28;20294;-82
2023/05/13 06:35:48;;;;;;;0.10;0.10;;;16.20;99.90;;;;;;5074632;28;20208;-81
2023/05/13 06:38:17;;;;;;;0.10;0.10;;;16.30;99.90;;;;;;5072335;28;20192;-82
2023/05/13 06:40:43;;;;;;;0.10;0.10;;;16.30;99.90;;;;;;5075457;28;20192;-82
2023/05/13 06:43:13;;;;;;;0.10;0.10;;;16.40;99.90;;;;;;5074960;28;20197;-82
2023/05/13 06:45:38;;;;;;;0.10;0.10;;;16.50;99.90;;;;;;5085763;28;20204;-82
2023/05/13 06:48:04;;;;;;;0.10;0.10;;;16.80;99.90;;;;;;5081850;28;20245;-82
2023/05/13 06:50:30;;;;;;;0.10;0.10;;;16.90;99.90;;;;;;5081483;28;20258;-82
2023/05/13 06:52:56;;;;;;;0.10;0.10;;;17.10;99.90;;;;;;5081772;28;20213;-83
2023/05/13 06:55:22;;;;;;;0.10;0.10;;;17.00;99.90;;;;;;5078161;28;20543;-82
2023/05/13 06:57:47;;;;;;;0.10;0.10;;;17.10;99.90;;;;;;5077275;28;20214;-82
2023/05/13 07:00:14;;;;;;;0.10;0.10;;;17.10;99.90;;;;;;5079137;28;20177;-82
2023/05/13 07:02:40;;;;;;;0.10;0.10;;;16.90;99.90;;;;;;5074936;28;20279;-81
2023/05/13 07:05:06;;;;;;;0.10;0.10;;;16.90;99.90;;;;;;5077952;28;20189;-82
2023/05/13 07:07:32;;;;;;;0.10;0.10;;;16.90;99.90;;;;;;5082024;28;20651;-83
2023/05/13 07:09:58;;;;;;;0.10;0.10;;;17.10;99.90;;;;;;5072473;28;20249;-84
2023/05/13 07:12:23;;;;;;;0.10;0.10;;;17.30;99.90;;;;;;5074995;28;20665;-82
2023/05/13 07:14:49;;;;;;;0.10;0.10;;;17.40;99.90;;;;;;5076133;28;20233;-82
2023/05/13 07:17:16;;;;;;;0.10;0.10;;;17.40;99.90;;;;;;5073994;28;20185;-83
2023/05/13 07:19:41;;;;;;;0.10;0.10;;;17.70;99.90;;;;;;5072231;28;20187;-83
2023/05/13 07:22:07;;;;;;;0.10;0.10;;;17.90;99.90;;;;;;5071622;28;20200;-83
2023/05/13 07:24:33;;;;;;;0.10;0.10;;;18.10;99.90;;;;;;5079851;28;20193;-83
2023/05/13 07:27:00;;;;;;;0.10;0.10;;;18.20;99.90;;;;;;5078518;28;20192;-82
2023/05/13 07:29:25;;;;;;;0.10;0.10;;;18.40;99.90;;;;;;5076965;28;20181;-83
2023/05/13 07:31:51;;;;;;;0.10;0.10;;;18.40;99.90;;;;;;5073988;28;20208;-83
2023/05/13 07:34:17;;;;;;;0.10;0.10;;;17.90;99.90;;;;;;5072896;28;20583;-83
2023/05/13 07:36:43;;;;;;;0.10;0.10;;;17.80;99.90;;;;;;5074570;28;20187;-83
2023/05/13 07:39:09;;;;;;;0.60;0.60;;;17.60;99.90;;;;;;5074637;28;20189;-83
2023/05/13 07:41:35;;;;;;;0.63;0.63;;;17.30;99.90;;;;;;5078937;28;20292;-83
2023/05/13 07:44:00;;;;;;;0.10;0.10;;;17.70;99.90;;;;;;5073062;28;20203;-83
2023/05/13 07:46:26;;;;;;;0.10;0.10;;;18.30;99.90;;;;;;5077708;28;20196;-83
2023/05/13 07:48:51;;;;;;;0.10;0.10;;;18.20;99.90;;;;;;5081049;28;20204;-84
2023/05/13 07:51:17;;;;;;;0.10;0.10;;;18.30;99.90;;;;;;5095776;28;20701;-83
2023/05/13 07:53:45;;;;;;;0.10;0.10;;;18.70;99.90;;;;;;5077976;28;20302;-84
2023/05/13 07:56:11;;;;;;;0.10;0.10;;;18.90;99.90;;;;;;5074764;28;20224;-83
2023/05/13 07:58:37;;;;;;;0.10;0.10;;;19.20;99.90;;;;;;5076055;28;20216;-84
2023/05/13 08:01:03;;;;;;;0.10;0.10;;;19.20;99.90;;;;;;5077983;28;20283;-83
2023/05/13 08:03:29;;;;;;;0.10;0.10;;;19.20;99.90;;;;;;5072135;28;20220;-83
2023/05/13 08:05:55;;;;;;;0.10;0.10;;;18.50;99.90;;;;;;5075287;28;20214;-83
2023/05/13 08:08:21;;;;;;;0.10;0.10;;;18.30;99.90;;;;;;5072957;28;20191;-83
2023/05/13 08:10:46;;;;;;;0.10;0.10;;;18.70;99.90;;;;;;5074514;28;20212;-83
2023/05/13 08:13:12;;;;;;;0.10;0.10;;;19.00;99.90;;;;;;5072131;28;20291;-83
2023/05/13 08:15:37;;;;;;;0.10;0.10;;;19.20;99.90;;;;;;5075743;28;20227;-83
2023/05/13 08:18:03;;;;;;;0.10;0.10;;;19.40;99.90;;;;;;5072976;28;20185;-83
2023/05/13 08:20:28;;;;;;;0.10;0.10;;;19.30;99.90;;;;;;5071168;28;20180;-83
2023/05/13 08:22:56;;;;;;;0.10;0.10;;;19.50;99.90;;;;;;5072960;28;20209;-83
2023/05/13 08:25:22;;;;;;;0.10;0.10;;;19.70;99.90;;;;;;5071883;28;20196;-83
2023/05/13 08:27:47;;;;;;;0.10;0.10;;;19.70;99.90;;;;;;5078057;28;20195;-84
2023/05/13 08:30:13;;;;;;;0.10;0.10;;;19.70;99.90;;;;;;5080894;28;20188;-84
2023/05/13 08:32:39;;;;;;;0.10;0.10;;;20.10;99.90;;;;;;5081292;28;20246;-83
2023/05/13 08:35:05;;;;;;;0.10;0.10;;;19.90;99.90;;;;;;5080039;28;20216;-84
2023/05/13 08:37:30;;;;;;;0.10;0.10;;;19.60;99.90;;;;;;5081897;28;20172;-83
2023/05/13 08:39:58;;;;;;;0.10;0.10;;;19.00;99.90;;;;;;5079679;28;20296;-84
2023/05/13 08:42:26;;;;;;;0.10;0.10;;;19.10;99.90;;;;;;5077993;28;20228;-84
2023/05/13 08:44:52;;;;;;;0.10;0.10;;;19.30;99.90;;;;;;5077542;28;20192;-84
2023/05/13 08:47:31;;;;;;;0.10;0.10;;;19.40;99.90;;;;;;5075650;28;20226;-85
2023/05/13 08:49:57;;;;;;;0.10;0.10;;;19.10;99.90;;;;;;5074048;28;20173;-84
2023/05/13 08:52:23;;;;;;;0.10;0.10;;;19.30;99.90;;;;;;5071658;28;20654;-84
2023/05/13 08:54:49;;;;;;;0.10;0.10;;;19.40;99.90;;;;;;5077332;28;20207;-84
2023/05/13 08:57:15;;;;;;;0.10;0.10;;;19.20;99.90;;;;;;5073846;28;20215;-84
2023/05/13 08:59:40;;;;;;;0.10;0.10;;;18.80;99.90;;;;;;5075396;28;20229;-84
2023/05/13 09:02:07;;;;;;;0.10;0.10;;;18.30;99.90;;;;;;5074105;28;20239;-84
2023/05/13 09:04:36;;;;;;;0.10;0.10;;;18.50;99.90;;;;;;5076247;28;20205;-83
2023/05/13 09:07:06;;;;;;;0.10;0.10;;;18.00;99.90;;;;;;5073772;28;20180;-83
2023/05/13 09:09:32;;;;;;;0.10;0.10;;;18.10;99.90;;;;;;5076119;28;20181;-82
2023/05/13 09:11:58;;;;;;;0.10;0.10;;;18.30;99.90;;;;;;5077333;28;20301;-83
2023/05/13 09:14:30;;;;;;;0.10;0.10;;;18.50;99.90;;;;;;5079495;28;20203;-83
2023/05/13 09:16:56;;;;;;;0.10;0.10;;;18.40;99.90;;;;;;5076931;28;20176;-83
2023/05/13 09:19:23;;;;;;;0.10;0.10;;;18.70;99.90;;;;;;5077874;28;20746;-83
2023/05/13 09:21:49;;;;;;;0.10;0.10;;;18.90;99.90;;;;;;5074739;28;20703;-82
2023/05/13 09:24:20;;;;;;;0.10;0.10;;;18.90;99.90;;;;;;5073319;28;20221;-83
2023/05/13 09:26:47;;;;;;;0.10;0.10;;;19.10;99.90;;;;;;5075211;28;20200;-82
2023/05/13 09:29:16;;;;;;;0.10;0.10;;;20.00;99.90;;;;;;5076356;28;20241;-83
2023/05/13 09:31:44;;;;;;;0.10;0.10;;;20.60;99.90;;;;;;5077401;28;20295;-83
2023/05/13 09:34:09;;;;;;;0.10;0.10;;;20.20;99.90;;;;;;5073446;28;20196;-83
2023/05/13 09:36:35;;;;;;;0.10;0.10;;;20.40;99.90;;;;;;5074449;28;20204;-83
2023/05/13 09:39:02;;;;;;;0.10;0.10;;;20.50;99.90;;;;;;5075186;28;20365;-83
2023/05/13 09:41:30;;;;;;;0.10;0.10;;;20.00;99.90;;;;;;5075070;28;20203;-83
2023/05/13 09:43:57;;;;;;;0.10;0.10;;;20.20;99.90;;;;;;5075485;28;20168;-83
2023/05/13 09:46:24;;;;;;;0.10;0.10;;;20.20;99.90;;;;;;5073710;28;20193;-83
2023/05/13 09:48:54;;;;;;;0.10;0.10;;;20.80;99.90;;;;;;5075282;28;20189;-83
2023/05/13 09:51:25;;;;;;;0.10;0.10;;;20.60;99.90;;;;;;5073544;28;20180;-85
2023/05/13 09:53:51;;;;;;;0.10;0.10;;;20.00;99.90;;;;;;5070472;28;20184;-82
2023/05/13 09:56:20;;;;;;;0.10;0.10;;;20.50;99.90;;;;;;5072464;28;20228;-83
2023/05/13 09:58:51;;;;;;;0.10;0.10;;;20.70;99.90;;;;;;5073433;28;20173;-84
2023/05/13 10:01:18;;;;;;;0.10;0.10;;;21.00;99.90;;;;;;5076341;28;20241;-83
2023/05/13 10:03:43;;;;;;;0.10;0.10;;;21.40;99.90;;;;;;5073406;28;20282;-83
2023/05/13 10:06:09;;;;;;;0.67;0.67;;;21.70;99.90;;;;;;5076348;28;20270;-84
2023/05/13 10:08:37;;;;;;;0.10;0.10;;;21.90;99.90;;;;;;5074351;28;20197;-83
2023/05/13 10:11:04;;;;;;;0.10;0.10;;;20.90;99.90;;;;;;5070687;28;20191;-83
2023/05/13 10:13:31;;;;;;;0.10;0.10;;;20.80;99.90;;;;;;5074473;28;20205;-84
2023/05/13 10:15:57;;;;;;;0.10;0.10;;;20.60;99.90;;;;;;5075919;28;20215;-84
2023/05/13 10:18:23;;;;;;;0.10;0.10;;;20.80;99.90;;;;;;5074650;28;20204;-83
2023/05/13 10:20:51;;;;;;;0.10;0.10;;;21.30;99.90;;;;;;5081649;28;20183;-84
2023/05/13 10:23:18;;;;;;;0.10;0.10;;;21.30;99.90;;;;;;5080262;28;20798;-84
2023/05/13 10:25:46;;;;;;;0.10;0.10;;;21.00;99.90;;;;;;5074070;28;20285;-83
2023/05/13 10:28:13;;;;;;;0.10;0.10;;;20.70;99.90;;;;;;5074578;28;20196;-83
2023/05/13 10:30:40;;;;;;;0.10;0.10;;;21.30;99.90;;;;;;5078417;28;20184;-83
2023/05/13 10:33:06;;;;;;;0.10;0.10;;;21.50;99.90;;;;;;5080034;28;20689;-82
2023/05/13 10:35:35;;;;;;;0.10;0.10;;;21.10;99.90;;;;;;5080001;28;20208;-83
2023/05/13 10:38:25;;;;;;;0.10;0.10;;;21.60;99.90;;;;;;5074301;28;20208;-83
2023/05/13 10:41:09;;;;;;;0.10;0.10;;;21.70;99.90;;;;;;5078883;28;20190;-83
2023/05/13 10:43:36;;;;;;;1.53;1.53;;;21.40;99.90;;;;;;5075838;28;20602;-82
2023/05/13 10:46:04;;;;;;;0.10;0.10;;;20.90;99.90;;;;;;5077863;28;20195;-83
2023/05/13 10:48:47;;;;;;;0.67;0.67;;;20.80;99.90;;;;;;5076363;28;20195;-83
2023/05/13 10:51:14;;;;;;;0.10;0.10;;;20.50;99.90;;;;;;5079829;28;20184;-83
2023/05/13 10:54:16;;;;;;;0.10;0.10;;;20.80;99.90;;;;;;5081590;28;20271;-82
2023/05/13 10:56:42;;;;;;;0.10;0.10;;;21.00;99.90;;;;;;5075204;28;20208;-84
2023/05/13 10:59:10;;;;;;;0.10;0.10;;;21.10;99.90;;;;;;5078921;28;20598;-83
2023/05/13 11:01:42;;;;;;;0.10;0.10;;;21.30;99.90;;;;;;5081676;28;20243;-83
2023/05/13 11:04:15;;;;;;;0.10;0.10;;;21.40;99.90;;;;;;5076723;28;20203;-84
2023/05/13 11:06:45;;;;;;;0.10;0.10;;;20.80;99.90;;;;;;5077474;28;20242;-83
2023/05/13 11:09:21;;;;;;;0.10;0.10;;;20.50;99.90;;;;;;5076866;28;20212;-84
2023/05/13 11:11:51;;;;;;;0.10;0.10;;;21.30;99.90;;;;;;5075538;28;20303;-83
2023/05/13 11:14:19;;;;;;;0.10;0.10;;;21.40;99.90;;;;;;5077991;28;20189;-83
2023/05/13 11:17:05;;;;;;;0.10;0.10;;;21.60;99.90;;;;;;5075180;28;20208;-82
2023/05/13 11:19:34;;;;;;;0.10;0.10;;;21.40;99.90;;;;;;5073659;28;20176;-83
2023/05/13 11:22:19;;;;;;;0.10;0.10;;;21.70;99.90;;;;;;5076209;28;20235;-83
2023/05/13 11:25:07;;;;;;;0.10;0.10;;;21.40;99.90;;;;;;5077776;28;20184;-83
2023/05/13 11:27:37;;;;;;;0.10;0.10;;;21.10;99.90;;;;;;5077093;28;20188;-84
2023/05/13 11:30:06;;;;;;;0.10;0.10;;;21.70;99.90;;;;;;5074860;28;20204;-84
2023/05/13 11:32:50;;;;;;;0.10;0.10;;;22.00;99.90;;;;;;5069867;28;20202;-83
2023/05/13 11:35:27;;;;;;;0.10;0.10;;;22.50;99.90;;;;;;5075812;28;20210;-83
2023/05/13 11:37:54;;;;;;;0.10;0.10;;;22.60;99.90;;;;;;5064380;28;20299;-83
2023/05/13 11:40:23;;;;;;;0.10;0.10;;;22.20;99.90;;;;;;5087867;28;20512;-84
2023/05/13 11:42:49;;;;;;;0.10;0.10;;;22.80;99.90;;;;;;5074208;28;20200;-83
2023/05/13 11:45:19;;;;;;;0.10;0.10;;;23.20;99.90;;;;;;5068719;28;20279;-83
2023/05/13 11:47:45;;;;;;;0.10;0.10;;;23.60;99.90;;;;;;5067548;28;20192;-83
2023/05/13 11:50:20;;;;;;;0.10;0.10;;;22.90;99.90;;;;;;5070550;28;20193;-83
2023/05/13 11:52:51;;;;;;;0.10;0.10;;;22.50;99.90;;;;;;5067134;28;20594;-83
2023/05/13 11:55:35;;;;;;;0.10;0.10;;;21.60;99.90;;;;;;5073391;28;20701;-83
2023/05/13 11:58:02;;;;;;;0.10;0.10;;;21.10;99.90;;;;;;5071929;28;20191;-83
2023/05/13 12:00:34;;;;;;;0.10;0.10;;;21.10;99.90;;;;;;5070619;28;22253;-83
2023/05/13 12:03:07;;;;;;;0.10;0.10;;;20.70;99.90;;;;;;5068671;28;20622;-82
2023/05/13 12:05:33;;;;;;;0.10;0.10;;;20.50;99.90;;;;;;5071015;28;20774;-84
2023/05/13 12:07:58;;;;;;;0.10;0.10;;;20.60;99.90;;;;;;5073794;28;20191;-83
2023/05/13 12:10:25;;;;;;;0.10;0.10;;;20.70;99.90;;;;;;5070642;28;20192;-84
2023/05/13 12:12:50;;;;;;;0.10;0.10;;;20.70;99.90;;;;;;5072093;28;20215;-83
2023/05/13 12:15:18;;;;;;;0.10;0.10;;;20.90;99.90;;;;;;5069794;28;20261;-82
2023/05/13 12:17:44;;;;;;;0.10;0.10;;;20.60;99.90;;;;;;5068854;28;20234;-83
2023/05/13 12:20:15;;;;;;;0.10;0.10;;;20.40;99.90;;;;;;5074321;28;20255;-83
2023/05/13 12:22:43;;;;;;;0.10;0.10;;;20.40;99.90;;;;;;5072941;28;20608;-83
2023/05/13 12:25:37;;;;;;;0.10;0.10;;;20.20;99.90;;;;;;5075414;28;20185;-83
2023/05/13 12:28:19;;;;;;;0.10;0.10;;;20.30;99.90;;;;;;5076843;28;20258;-83
2023/05/13 12:31:03;;;;;;;0.10;0.10;;;21.00;99.90;;;;;;5077338;28;20189;-84
2023/05/13 12:33:42;;;;;;;0.10;0.10;;;21.00;99.90;;;;;;5076212;28;21045;-83
2023/05/13 12:36:21;;;;;;;0.10;0.10;;;21.50;99.90;;;;;;5075365;28;21032;-84
2023/05/13 12:39:02;;;;;;;0.10;0.10;;;21.80;99.90;;;;;;5075120;28;20235;-83
2023/05/13 12:41:33;;;;;;;0.10;0.10;;;22.70;99.90;;;;;;5078117;28;20169;-82
2023/05/13 12:44:06;;;;;;;0.10;0.10;;;22.80;99.90;;;;;;5079480;28;20180;-83
2023/05/13 12:46:32;;;;;;;0.10;0.10;;;22.70;99.90;;;;;;5073585;28;20199;-83
2023/05/13 12:48:59;;;;;;;0.10;0.10;;;22.70;99.90;;;;;;5075142;28;20185;-83